This is the latest recevied weather packets stored in our database for station/object WA7CUG. If no packets are shown the sender has not sent any weather packets the latest 10 day(s).
| Time | Temp. | Humidity | Pressure | Rain* | Wind** | Luminosity | Snow |
|---|---|---|---|---|---|---|---|
| 1777422036 | 21.11° C | 36% | 1017 hPa | 0 mm | - | 132 W/m² | - |
| 1777421731 | 21.11° C | 36% | 1017.2 hPa | 0 mm | - | 164 W/m² | - |
| 1777421427 | 21.11° C | 37% | 1017.3 hPa | 0 mm | - | 176 W/m² | - |
| 1777421123 | 21.11° C | 36% | 1017.1 hPa | 0 mm | - | 188 W/m² | - |
| 1777420820 | 20.56° C | 40% | 1017 hPa | 0 mm | - | 236 W/m² | - |
| 1777420516 | 20.56° C | 38% | 1017.1 hPa | 0 mm | - | 191 W/m² | - |
| 1777420212 | 20.56° C | 39% | 1017.1 hPa | 0 mm | - | 177 W/m² | - |
| 1777419908 | 20.56° C | 40% | 1016.9 hPa | 0 mm | - | 172 W/m² | - |
| 1777419605 | 21.11° C | 40% | 1017 hPa | 0 mm | - | 171 W/m² | - |
| 1777419304 | 20.56° C | 39% | 1017.1 hPa | 0 mm | - | 182 W/m² | - |
| 1777419002 | 20.56° C | 39% | 1016.9 hPa | 0 mm | - | 188 W/m² | - |
| 1777418696 | 20.56° C | 40% | 1016.9 hPa | 0 mm | - | 182 W/m² | - |
| 1777418393 | 20° C | 36% | 1017 hPa | 0 mm | - | 185 W/m² | - |
| 1777418089 | 20.56° C | 36% | 1017 hPa | 0 mm | - | 197 W/m² | - |
| 1777417785 | 21.67° C | 34% | 1017 hPa | 0 mm | - | 424 W/m² | - |
| 1777417481 | 21.67° C | 36% | 1017 hPa | 0 mm | - | 207 W/m² | - |
| 1777417178 | 22.78° C | 34% | 1017.3 hPa | 0 mm | - | 182 W/m² | - |
| 1777416873 | 21.67° C | 33% | 1017.2 hPa | 0 mm | - | 548 W/m² | - |
| 1777416569 | 22.22° C | 38% | 1017.1 hPa | 0 mm | - | 189 W/m² | - |
| 1777416266 | 23.33° C | 33% | 1017.2 hPa | 0 mm | - | 177 W/m² | - |
| 1777415964 | 22.22° C | 38% | 1017.4 hPa | 0 mm | - | 576 W/m² | - |
| 1777415661 | 22.78° C | 32% | 1017.2 hPa | 0 mm | - | 595 W/m² | - |
| 1777415356 | 21.67° C | 32% | 1017.1 hPa | 0 mm | - | 630 W/m² | - |
| 1777415051 | 22.78° C | 32% | 1017.2 hPa | 0 mm | - | 610 W/m² | - |
| 1777414750 | 21.11° C | 40% | 1017.4 hPa | 0 mm | - | 655 W/m² | - |
* Rain latest hour (hover to see other rain measurements)
** Current wind speed in m/s (hover to see current wind gust speed)